sensor_id;sensor_type;location;lat;lon;timestamp;P1;durP1;ratioP1;P2;durP2;ratioP2
14116;SDS011;7137;51.436;6.544;2023-05-28T00:02:03;6.83;;;3.90;;
14116;SDS011;7137;51.436;6.544;2023-05-28T00:05:05;9.00;;;4.77;;
14116;SDS011;7137;51.436;6.544;2023-05-28T00:08:07;10.43;;;4.53;;
14116;SDS011;7137;51.436;6.544;2023-05-28T00:11:10;8.33;;;4.20;;
14116;SDS011;7137;51.436;6.544;2023-05-28T00:14:12;8.97;;;4.60;;
14116;SDS011;7137;51.436;6.544;2023-05-28T00:17:14;7.57;;;4.03;;
14116;SDS011;7137;51.436;6.544;2023-05-28T00:20:16;8.97;;;4.83;;
14116;SDS011;7137;51.436;6.544;2023-05-28T00:23:18;7.83;;;4.33;;
14116;SDS011;7137;51.436;6.544;2023-05-28T00:26:21;7.37;;;4.03;;
14116;SDS011;7137;51.436;6.544;2023-05-28T00:29:22;7.57;;;4.27;;
14116;SDS011;7137;51.436;6.544;2023-05-28T00:32:26;9.53;;;4.37;;
14116;SDS011;7137;51.436;6.544;2023-05-28T00:35:28;8.90;;;4.40;;
14116;SDS011;7137;51.436;6.544;2023-05-28T00:38:29;8.67;;;4.00;;
14116;SDS011;7137;51.436;6.544;2023-05-28T00:41:33;9.27;;;4.80;;
14116;SDS011;7137;51.436;6.544;2023-05-28T00:44:36;8.53;;;4.50;;
14116;SDS011;7137;51.436;6.544;2023-05-28T00:47:39;8.77;;;4.40;;
14116;SDS011;7137;51.436;6.544;2023-05-28T00:50:42;8.93;;;4.47;;
14116;SDS011;7137;51.436;6.544;2023-05-28T00:53:44;7.13;;;4.23;;
14116;SDS011;7137;51.436;6.544;2023-05-28T00:56:47;8.53;;;4.60;;
14116;SDS011;7137;51.436;6.544;2023-05-28T00:59:49;9.80;;;4.80;;
14116;SDS011;7137;51.436;6.544;2023-05-28T01:02:52;8.43;;;4.43;;
14116;SDS011;7137;51.436;6.544;2023-05-28T01:05:53;9.63;;;4.47;;
14116;SDS011;7137;51.436;6.544;2023-05-28T01:08:55;8.33;;;4.43;;
14116;SDS011;7137;51.436;6.544;2023-05-28T01:11:58;7.87;;;4.50;;
14116;SDS011;7137;51.436;6.544;2023-05-28T01:15:02;8.33;;;4.67;;
14116;SDS011;7137;51.436;6.544;2023-05-28T01:18:04;10.97;;;4.80;;
14116;SDS011;7137;51.436;6.544;2023-05-28T01:21:06;9.20;;;4.87;;
14116;SDS011;7137;51.436;6.544;2023-05-28T01:24:12;11.43;;;5.57;;
14116;SDS011;7137;51.436;6.544;2023-05-28T01:27:14;7.80;;;4.90;;
14116;SDS011;7137;51.436;6.544;2023-05-28T01:30:16;7.77;;;4.60;;
14116;SDS011;7137;51.436;6.544;2023-05-28T01:33:18;10.43;;;4.83;;
14116;SDS011;7137;51.436;6.544;2023-05-28T01:36:21;9.67;;;4.67;;
14116;SDS011;7137;51.436;6.544;2023-05-28T01:39:32;9.47;;;5.07;;
14116;SDS011;7137;51.436;6.544;2023-05-28T01:42:38;9.37;;;4.83;;
14116;SDS011;7137;51.436;6.544;2023-05-28T01:45:40;8.43;;;4.97;;
14116;SDS011;7137;51.436;6.544;2023-05-28T01:48:42;8.67;;;5.10;;
14116;SDS011;7137;51.436;6.544;2023-05-28T01:51:44;8.97;;;5.27;;
14116;SDS011;7137;51.436;6.544;2023-05-28T01:54:47;8.97;;;5.30;;
14116;SDS011;7137;51.436;6.544;2023-05-28T01:57:49;9.33;;;5.50;;
14116;SDS011;7137;51.436;6.544;2023-05-28T02:00:56;8.47;;;4.87;;
14116;SDS011;7137;51.436;6.544;2023-05-28T02:04:04;10.83;;;5.13;;
14116;SDS011;7137;51.436;6.544;2023-05-28T02:07:05;10.30;;;5.03;;
14116;SDS011;7137;51.436;6.544;2023-05-28T02:10:08;10.17;;;5.57;;
14116;SDS011;7137;51.436;6.544;2023-05-28T02:13:10;8.30;;;5.17;;
14116;SDS011;7137;51.436;6.544;2023-05-28T02:16:12;10.00;;;5.60;;
14116;SDS011;7137;51.436;6.544;2023-05-28T02:19:17;7.60;;;4.93;;
14116;SDS011;7137;51.436;6.544;2023-05-28T02:22:20;9.80;;;5.03;;
14116;SDS011;7137;51.436;6.544;2023-05-28T02:25:23;9.20;;;5.30;;
14116;SDS011;7137;51.436;6.544;2023-05-28T02:28:25;10.73;;;5.53;;
14116;SDS011;7137;51.436;6.544;2023-05-28T02:31:26;10.10;;;5.80;;
14116;SDS011;7137;51.436;6.544;2023-05-28T02:34:28;9.50;;;5.87;;
14116;SDS011;7137;51.436;6.544;2023-05-28T02:37:29;10.10;;;6.00;;
14116;SDS011;7137;51.436;6.544;2023-05-28T02:40:32;11.27;;;6.00;;
14116;SDS011;7137;51.436;6.544;2023-05-28T02:43:34;10.67;;;6.10;;
14116;SDS011;7137;51.436;6.544;2023-05-28T02:46:35;10.20;;;6.00;;
14116;SDS011;7137;51.436;6.544;2023-05-28T02:49:37;10.97;;;6.40;;
14116;SDS011;7137;51.436;6.544;2023-05-28T02:52:38;11.23;;;6.30;;
14116;SDS011;7137;51.436;6.544;2023-05-28T02:55:41;9.40;;;5.80;;
14116;SDS011;7137;51.436;6.544;2023-05-28T02:58:43;11.57;;;6.70;;
14116;SDS011;7137;51.436;6.544;2023-05-28T03:01:45;11.30;;;6.23;;
14116;SDS011;7137;51.436;6.544;2023-05-28T03:04:47;11.10;;;6.13;;
14116;SDS011;7137;51.436;6.544;2023-05-28T03:07:50;10.87;;;6.53;;
14116;SDS011;7137;51.436;6.544;2023-05-28T03:10:52;9.90;;;6.00;;
14116;SDS011;7137;51.436;6.544;2023-05-28T03:13:54;12.10;;;6.57;;
14116;SDS011;7137;51.436;6.544;2023-05-28T03:16:56;10.40;;;6.33;;
14116;SDS011;7137;51.436;6.544;2023-05-28T03:19:57;10.60;;;6.23;;
14116;SDS011;7137;51.436;6.544;2023-05-28T03:22:59;12.00;;;6.40;;
14116;SDS011;7137;51.436;6.544;2023-05-28T03:26:03;9.40;;;6.03;;
14116;SDS011;7137;51.436;6.544;2023-05-28T03:29:05;10.77;;;6.90;;
14116;SDS011;7137;51.436;6.544;2023-05-28T03:32:07;11.23;;;6.67;;
14116;SDS011;7137;51.436;6.544;2023-05-28T03:35:08;10.47;;;6.47;;
14116;SDS011;7137;51.436;6.544;2023-05-28T03:38:10;10.13;;;6.33;;
14116;SDS011;7137;51.436;6.544;2023-05-28T03:41:13;10.13;;;6.30;;
14116;SDS011;7137;51.436;6.544;2023-05-28T03:44:15;9.13;;;5.70;;
14116;SDS011;7137;51.436;6.544;2023-05-28T03:47:17;9.70;;;6.17;;
14116;SDS011;7137;51.436;6.544;2023-05-28T03:50:19;11.63;;;6.60;;
14116;SDS011;7137;51.436;6.544;2023-05-28T03:53:21;12.50;;;6.83;;
14116;SDS011;7137;51.436;6.544;2023-05-28T03:56:24;11.83;;;6.27;;
14116;SDS011;7137;51.436;6.544;2023-05-28T03:59:26;10.47;;;6.77;;
14116;SDS011;7137;51.436;6.544;2023-05-28T04:02:28;11.03;;;6.27;;
14116;SDS011;7137;51.436;6.544;2023-05-28T04:05:29;11.97;;;6.50;;
14116;SDS011;7137;51.436;6.544;2023-05-28T04:08:33;11.63;;;6.40;;
14116;SDS011;7137;51.436;6.544;2023-05-28T04:11:36;9.17;;;6.23;;
14116;SDS011;7137;51.436;6.544;2023-05-28T04:14:38;11.63;;;6.57;;
14116;SDS011;7137;51.436;6.544;2023-05-28T04:17:41;11.67;;;6.60;;
14116;SDS011;7137;51.436;6.544;2023-05-28T04:20:42;13.77;;;7.43;;
14116;SDS011;7137;51.436;6.544;2023-05-28T04:23:44;10.37;;;6.20;;
14116;SDS011;7137;51.436;6.544;2023-05-28T04:26:47;9.70;;;5.87;;
14116;SDS011;7137;51.436;6.544;2023-05-28T04:29:49;10.43;;;5.90;;
14116;SDS011;7137;51.436;6.544;2023-05-28T04:32:52;13.07;;;6.10;;
14116;SDS011;7137;51.436;6.544;2023-05-28T04:35:53;9.53;;;6.10;;
14116;SDS011;7137;51.436;6.544;2023-05-28T04:38:55;10.53;;;6.07;;
14116;SDS011;7137;51.436;6.544;2023-05-28T04:42:02;10.10;;;5.93;;
14116;SDS011;7137;51.436;6.544;2023-05-28T04:45:07;10.87;;;6.13;;
14116;SDS011;7137;51.436;6.544;2023-05-28T04:48:10;9.20;;;6.00;;
14116;SDS011;7137;51.436;6.544;2023-05-28T04:51:11;10.47;;;6.10;;
14116;SDS011;7137;51.436;6.544;2023-05-28T04:54:13;10.63;;;6.30;;
14116;SDS011;7137;51.436;6.544;2023-05-28T04:57:16;9.90;;;5.80;;
14116;SDS011;7137;51.436;6.544;2023-05-28T05:00:18;11.43;;;6.47;;
14116;SDS011;7137;51.436;6.544;2023-05-28T05:03:20;9.87;;;6.40;;
14116;SDS011;7137;51.436;6.544;2023-05-28T05:06:21;10.17;;;6.30;;
14116;SDS011;7137;51.436;6.544;2023-05-28T05:09:23;10.70;;;6.53;;
14116;SDS011;7137;51.436;6.544;2023-05-28T05:12:27;10.40;;;7.07;;
14116;SDS011;7137;51.436;6.544;2023-05-28T05:15:28;13.07;;;6.60;;
14116;SDS011;7137;51.436;6.544;2023-05-28T05:18:30;10.53;;;6.40;;
14116;SDS011;7137;51.436;6.544;2023-05-28T05:21:32;9.13;;;5.97;;
14116;SDS011;7137;51.436;6.544;2023-05-28T05:24:33;11.80;;;6.63;;
14116;SDS011;7137;51.436;6.544;2023-05-28T05:27:36;11.20;;;6.53;;
14116;SDS011;7137;51.436;6.544;2023-05-28T05:30:38;10.87;;;6.90;;
14116;SDS011;7137;51.436;6.544;2023-05-28T05:33:40;10.37;;;6.97;;
14116;SDS011;7137;51.436;6.544;2023-05-28T05:36:42;11.87;;;6.83;;
14116;SDS011;7137;51.436;6.544;2023-05-28T05:39:43;12.63;;;6.63;;
14116;SDS011;7137;51.436;6.544;2023-05-28T05:42:46;10.53;;;6.73;;
14116;SDS011;7137;51.436;6.544;2023-05-28T05:45:48;10.03;;;6.17;;
14116;SDS011;7137;51.436;6.544;2023-05-28T05:48:49;11.70;;;6.20;;
14116;SDS011;7137;51.436;6.544;2023-05-28T05:51:51;11.27;;;6.90;;
14116;SDS011;7137;51.436;6.544;2023-05-28T05:54:52;11.47;;;6.43;;
14116;SDS011;7137;51.436;6.544;2023-05-28T05:57:55;10.27;;;6.20;;
14116;SDS011;7137;51.436;6.544;2023-05-28T06:00:58;10.17;;;6.10;;
14116;SDS011;7137;51.436;6.544;2023-05-28T06:04:00;9.90;;;6.20;;
14116;SDS011;7137;51.436;6.544;2023-05-28T06:07:01;10.97;;;6.40;;
14116;SDS011;7137;51.436;6.544;2023-05-28T06:10:04;10.50;;;6.10;;
14116;SDS011;7137;51.436;6.544;2023-05-28T06:13:08;10.37;;;5.93;;
14116;SDS011;7137;51.436;6.544;2023-05-28T06:16:09;10.50;;;5.70;;
14116;SDS011;7137;51.436;6.544;2023-05-28T06:19:11;11.77;;;6.67;;
14116;SDS011;7137;51.436;6.544;2023-05-28T06:22:12;11.30;;;6.03;;
14116;SDS011;7137;51.436;6.544;2023-05-28T06:25:14;11.03;;;5.63;;
14116;SDS011;7137;51.436;6.544;2023-05-28T06:28:18;9.80;;;5.90;;
14116;SDS011;7137;51.436;6.544;2023-05-28T06:31:19;11.67;;;6.73;;
14116;SDS011;7137;51.436;6.544;2023-05-28T06:34:21;9.37;;;6.20;;
14116;SDS011;7137;51.436;6.544;2023-05-28T06:37:22;12.40;;;6.63;;
14116;SDS011;7137;51.436;6.544;2023-05-28T06:40:24;10.73;;;6.37;;
14116;SDS011;7137;51.436;6.544;2023-05-28T06:43:28;12.43;;;6.23;;
14116;SDS011;7137;51.436;6.544;2023-05-28T06:46:30;12.87;;;7.60;;
14116;SDS011;7137;51.436;6.544;2023-05-28T06:49:32;10.30;;;6.63;;
14116;SDS011;7137;51.436;6.544;2023-05-28T06:52:34;12.07;;;6.60;;
14116;SDS011;7137;51.436;6.544;2023-05-28T06:55:35;12.47;;;7.10;;
14116;SDS011;7137;51.436;6.544;2023-05-28T06:58:38;13.03;;;6.30;;
14116;SDS011;7137;51.436;6.544;2023-05-28T07:01:40;10.07;;;5.83;;
14116;SDS011;7137;51.436;6.544;2023-05-28T07:04:42;9.60;;;5.67;;
14116;SDS011;7137;51.436;6.544;2023-05-28T07:07:43;9.80;;;6.50;;
14116;SDS011;7137;51.436;6.544;2023-05-28T07:10:45;10.77;;;6.43;;
14116;SDS011;7137;51.436;6.544;2023-05-28T07:13:48;12.90;;;6.20;;
14116;SDS011;7137;51.436;6.544;2023-05-28T07:16:51;10.83;;;5.67;;
14116;SDS011;7137;51.436;6.544;2023-05-28T07:19:53;10.43;;;6.27;;
14116;SDS011;7137;51.436;6.544;2023-05-28T07:22:54;10.43;;;6.23;;
14116;SDS011;7137;51.436;6.544;2023-05-28T07:25:56;9.87;;;6.07;;
14116;SDS011;7137;51.436;6.544;2023-05-28T07:28:59;9.87;;;5.70;;
14116;SDS011;7137;51.436;6.544;2023-05-28T07:32:01;9.20;;;6.00;;
14116;SDS011;7137;51.436;6.544;2023-05-28T07:35:02;10.57;;;5.87;;
14116;SDS011;7137;51.436;6.544;2023-05-28T07:38:05;9.40;;;5.00;;
14116;SDS011;7137;51.436;6.544;2023-05-28T07:41:06;10.30;;;5.10;;
14116;SDS011;7137;51.436;6.544;2023-05-28T07:44:09;8.70;;;4.60;;
14116;SDS011;7137;51.436;6.544;2023-05-28T07:47:12;8.97;;;4.80;;
14116;SDS011;7137;51.436;6.544;2023-05-28T07:50:14;10.27;;;5.00;;
14116;SDS011;7137;51.436;6.544;2023-05-28T07:53:16;8.17;;;4.57;;
14116;SDS011;7137;51.436;6.544;2023-05-28T07:56:17;7.93;;;4.63;;
14116;SDS011;7137;51.436;6.544;2023-05-28T07:59:20;7.83;;;4.30;;
14116;SDS011;7137;51.436;6.544;2023-05-28T08:02:22;7.23;;;4.23;;
14116;SDS011;7137;51.436;6.544;2023-05-28T08:05:24;7.13;;;4.30;;
14116;SDS011;7137;51.436;6.544;2023-05-28T08:08:26;7.50;;;4.30;;
14116;SDS011;7137;51.436;6.544;2023-05-28T08:11:28;10.83;;;4.30;;
14116;SDS011;7137;51.436;6.544;2023-05-28T08:14:31;8.33;;;4.30;;
14116;SDS011;7137;51.436;6.544;2023-05-28T08:17:32;7.93;;;4.30;;
14116;SDS011;7137;51.436;6.544;2023-05-28T08:20:34;6.37;;;4.07;;
14116;SDS011;7137;51.436;6.544;2023-05-28T08:23:36;7.87;;;4.13;;
14116;SDS011;7137;51.436;6.544;2023-05-28T08:26:37;7.40;;;3.90;;
14116;SDS011;7137;51.436;6.544;2023-05-28T08:29:40;8.27;;;3.87;;
14116;SDS011;7137;51.436;6.544;2023-05-28T08:32:42;7.40;;;4.00;;
14116;SDS011;7137;51.436;6.544;2023-05-28T08:35:43;7.87;;;3.87;;
14116;SDS011;7137;51.436;6.544;2023-05-28T08:38:45;8.20;;;4.20;;
14116;SDS011;7137;51.436;6.544;2023-05-28T08:41:47;7.77;;;3.50;;
14116;SDS011;7137;51.436;6.544;2023-05-28T08:44:50;8.03;;;3.73;;
14116;SDS011;7137;51.436;6.544;2023-05-28T08:47:52;7.57;;;3.50;;
14116;SDS011;7137;51.436;6.544;2023-05-28T08:50:55;6.80;;;3.80;;
14116;SDS011;7137;51.436;6.544;2023-05-28T08:53:58;9.10;;;4.07;;
14116;SDS011;7137;51.436;6.544;2023-05-28T08:57:00;7.77;;;4.30;;
14116;SDS011;7137;51.436;6.544;2023-05-28T09:00:04;7.33;;;3.77;;
14116;SDS011;7137;51.436;6.544;2023-05-28T09:03:08;8.67;;;3.77;;
14116;SDS011;7137;51.436;6.544;2023-05-28T09:06:10;8.83;;;3.70;;
14116;SDS011;7137;51.436;6.544;2023-05-28T09:09:12;10.07;;;4.00;;
14116;SDS011;7137;51.436;6.544;2023-05-28T09:12:19;9.47;;;4.27;;
14116;SDS011;7137;51.436;6.544;2023-05-28T09:15:23;9.10;;;3.73;;
14116;SDS011;7137;51.436;6.544;2023-05-28T09:18:25;5.80;;;3.30;;
14116;SDS011;7137;51.436;6.544;2023-05-28T09:21:27;9.37;;;3.87;;
14116;SDS011;7137;51.436;6.544;2023-05-28T09:24:28;8.13;;;3.70;;
14116;SDS011;7137;51.436;6.544;2023-05-28T09:27:30;7.53;;;3.73;;
14116;SDS011;7137;51.436;6.544;2023-05-28T09:30:35;8.77;;;3.53;;
14116;SDS011;7137;51.436;6.544;2023-05-28T09:33:40;8.23;;;3.33;;
14116;SDS011;7137;51.436;6.544;2023-05-28T09:36:42;8.03;;;3.60;;
14116;SDS011;7137;51.436;6.544;2023-05-28T09:39:45;7.27;;;3.60;;
14116;SDS011;7137;51.436;6.544;2023-05-28T09:42:46;7.17;;;3.47;;
14116;SDS011;7137;51.436;6.544;2023-05-28T09:45:53;6.07;;;3.43;;
14116;SDS011;7137;51.436;6.544;2023-05-28T09:49:06;7.43;;;3.23;;
14116;SDS011;7137;51.436;6.544;2023-05-28T09:52:08;7.57;;;3.20;;
14116;SDS011;7137;51.436;6.544;2023-05-28T09:55:11;7.27;;;3.20;;
14116;SDS011;7137;51.436;6.544;2023-05-28T09:58:14;7.90;;;3.50;;
14116;SDS011;7137;51.436;6.544;2023-05-28T10:01:19;7.27;;;3.10;;
14116;SDS011;7137;51.436;6.544;2023-05-28T10:04:29;6.60;;;3.13;;
14116;SDS011;7137;51.436;6.544;2023-05-28T10:07:34;7.33;;;3.33;;
14116;SDS011;7137;51.436;6.544;2023-05-28T10:10:38;8.07;;;3.23;;
14116;SDS011;7137;51.436;6.544;2023-05-28T10:13:41;7.93;;;3.60;;
14116;SDS011;7137;51.436;6.544;2023-05-28T10:16:45;7.87;;;3.50;;
14116;SDS011;7137;51.436;6.544;2023-05-28T10:19:47;8.37;;;3.20;;
14116;SDS011;7137;51.436;6.544;2023-05-28T10:22:49;6.70;;;3.33;;
14116;SDS011;7137;51.436;6.544;2023-05-28T10:25:51;8.80;;;3.50;;
14116;SDS011;7137;51.436;6.544;2023-05-28T10:28:53;6.83;;;3.43;;
14116;SDS011;7137;51.436;6.544;2023-05-28T10:31:57;7.27;;;3.17;;
14116;SDS011;7137;51.436;6.544;2023-05-28T10:35:00;6.83;;;3.20;;
14116;SDS011;7137;51.436;6.544;2023-05-28T10:38:04;7.73;;;3.10;;
14116;SDS011;7137;51.436;6.544;2023-05-28T10:41:06;8.30;;;3.60;;
14116;SDS011;7137;51.436;6.544;2023-05-28T10:44:08;7.50;;;3.30;;
14116;SDS011;7137;51.436;6.544;2023-05-28T10:47:12;8.10;;;3.20;;
14116;SDS011;7137;51.436;6.544;2023-05-28T10:50:17;5.90;;;3.03;;
14116;SDS011;7137;51.436;6.544;2023-05-28T10:53:19;6.63;;;3.00;;
14116;SDS011;7137;51.436;6.544;2023-05-28T10:56:21;7.13;;;3.60;;
14116;SDS011;7137;51.436;6.544;2023-05-28T10:59:35;6.53;;;3.30;;
14116;SDS011;7137;51.436;6.544;2023-05-28T11:02:39;6.60;;;3.23;;
14116;SDS011;7137;51.436;6.544;2023-05-28T11:05:43;7.47;;;3.73;;
14116;SDS011;7137;51.436;6.544;2023-05-28T11:08:45;6.20;;;2.97;;
14116;SDS011;7137;51.436;6.544;2023-05-28T11:11:48;7.77;;;3.20;;
14116;SDS011;7137;51.436;6.544;2023-05-28T11:14:49;6.63;;;3.03;;
14116;SDS011;7137;51.436;6.544;2023-05-28T11:17:52;7.13;;;3.00;;
14116;SDS011;7137;51.436;6.544;2023-05-28T11:21:01;6.77;;;3.23;;
14116;SDS011;7137;51.436;6.544;2023-05-28T11:24:04;6.73;;;3.20;;
14116;SDS011;7137;51.436;6.544;2023-05-28T11:27:06;7.17;;;3.47;;
14116;SDS011;7137;51.436;6.544;2023-05-28T11:30:10;7.00;;;3.13;;
14116;SDS011;7137;51.436;6.544;2023-05-28T11:33:14;7.30;;;3.27;;
14116;SDS011;7137;51.436;6.544;2023-05-28T11:36:17;6.23;;;3.00;;
14116;SDS011;7137;51.436;6.544;2023-05-28T11:39:19;7.20;;;3.10;;
14116;SDS011;7137;51.436;6.544;2023-05-28T11:42:21;7.13;;;2.93;;
14116;SDS011;7137;51.436;6.544;2023-05-28T11:45:24;7.40;;;3.43;;
14116;SDS011;7137;51.436;6.544;2023-05-28T11:48:27;7.60;;;3.07;;
14116;SDS011;7137;51.436;6.544;2023-05-28T11:51:29;7.07;;;3.70;;
14116;SDS011;7137;51.436;6.544;2023-05-28T11:54:31;8.23;;;3.43;;
14116;SDS011;7137;51.436;6.544;2023-05-28T11:57:32;6.40;;;3.20;;
14116;SDS011;7137;51.436;6.544;2023-05-28T12:00:37;9.80;;;6.37;;
14116;SDS011;7137;51.436;6.544;2023-05-28T12:03:40;6.20;;;3.60;;
14116;SDS011;7137;51.436;6.544;2023-05-28T12:06:52;5.30;;;3.00;;
14116;SDS011;7137;51.436;6.544;2023-05-28T12:10:07;5.93;;;3.20;;
14116;SDS011;7137;51.436;6.544;2023-05-28T12:13:11;7.03;;;3.03;;
14116;SDS011;7137;51.436;6.544;2023-05-28T12:16:13;10.97;;;3.50;;
14116;SDS011;7137;51.436;6.544;2023-05-28T12:19:16;6.93;;;3.10;;
14116;SDS011;7137;51.436;6.544;2023-05-28T12:22:18;7.73;;;3.30;;
14116;SDS011;7137;51.436;6.544;2023-05-28T12:25:20;7.13;;;3.23;;
14116;SDS011;7137;51.436;6.544;2023-05-28T12:28:22;7.67;;;3.20;;
14116;SDS011;7137;51.436;6.544;2023-05-28T12:31:26;5.63;;;3.30;;
14116;SDS011;7137;51.436;6.544;2023-05-28T12:34:30;8.23;;;3.00;;
14116;SDS011;7137;51.436;6.544;2023-05-28T12:37:32;5.73;;;2.87;;
14116;SDS011;7137;51.436;6.544;2023-05-28T12:40:33;9.43;;;3.43;;
14116;SDS011;7137;51.436;6.544;2023-05-28T12:43:35;8.37;;;3.30;;
14116;SDS011;7137;51.436;6.544;2023-05-28T12:46:37;10.50;;;3.30;;
14116;SDS011;7137;51.436;6.544;2023-05-28T12:49:40;7.53;;;3.10;;
14116;SDS011;7137;51.436;6.544;2023-05-28T12:52:42;6.57;;;3.50;;
14116;SDS011;7137;51.436;6.544;2023-05-28T12:55:43;6.50;;;3.20;;
14116;SDS011;7137;51.436;6.544;2023-05-28T12:58:45;6.60;;;3.03;;
14116;SDS011;7137;51.436;6.544;2023-05-28T13:01:46;6.87;;;3.40;;
14116;SDS011;7137;51.436;6.544;2023-05-28T13:04:49;6.43;;;3.07;;
14116;SDS011;7137;51.436;6.544;2023-05-28T13:07:51;7.03;;;2.97;;
14116;SDS011;7137;51.436;6.544;2023-05-28T13:10:53;6.07;;;3.00;;
14116;SDS011;7137;51.436;6.544;2023-05-28T13:13:54;5.60;;;3.00;;
14116;SDS011;7137;51.436;6.544;2023-05-28T13:16:56;8.77;;;3.40;;
14116;SDS011;7137;51.436;6.544;2023-05-28T13:19:59;8.37;;;3.23;;
14116;SDS011;7137;51.436;6.544;2023-05-28T13:23:01;7.93;;;3.20;;
14116;SDS011;7137;51.436;6.544;2023-05-28T13:26:03;7.03;;;3.30;;
14116;SDS011;7137;51.436;6.544;2023-05-28T13:29:04;8.03;;;3.93;;
14116;SDS011;7137;51.436;6.544;2023-05-28T13:32:06;9.47;;;3.37;;
14116;SDS011;7137;51.436;6.544;2023-05-28T13:35:09;8.23;;;3.57;;
14116;SDS011;7137;51.436;6.544;2023-05-28T13:38:11;6.97;;;3.20;;
14116;SDS011;7137;51.436;6.544;2023-05-28T13:41:13;7.53;;;3.33;;
14116;SDS011;7137;51.436;6.544;2023-05-28T13:44:15;6.13;;;3.03;;
14116;SDS011;7137;51.436;6.544;2023-05-28T13:47:17;8.10;;;3.30;;
14116;SDS011;7137;51.436;6.544;2023-05-28T13:50:20;6.43;;;3.40;;
14116;SDS011;7137;51.436;6.544;2023-05-28T13:53:22;5.83;;;3.17;;
14116;SDS011;7137;51.436;6.544;2023-05-28T13:56:24;6.50;;;3.23;;
14116;SDS011;7137;51.436;6.544;2023-05-28T13:59:26;7.27;;;3.27;;
14116;SDS011;7137;51.436;6.544;2023-05-28T14:02:27;6.70;;;2.87;;
14116;SDS011;7137;51.436;6.544;2023-05-28T14:05:30;5.97;;;2.97;;
14116;SDS011;7137;51.436;6.544;2023-05-28T14:08:32;7.73;;;3.30;;
14116;SDS011;7137;51.436;6.544;2023-05-28T14:11:33;5.97;;;2.80;;
14116;SDS011;7137;51.436;6.544;2023-05-28T14:14:35;6.37;;;3.10;;
14116;SDS011;7137;51.436;6.544;2023-05-28T14:17:36;5.90;;;3.00;;
14116;SDS011;7137;51.436;6.544;2023-05-28T14:20:40;6.27;;;2.97;;
14116;SDS011;7137;51.436;6.544;2023-05-28T14:23:41;7.73;;;3.23;;
14116;SDS011;7137;51.436;6.544;2023-05-28T14:26:43;7.33;;;3.30;;
14116;SDS011;7137;51.436;6.544;2023-05-28T14:29:44;7.83;;;3.23;;
14116;SDS011;7137;51.436;6.544;2023-05-28T14:32:46;7.03;;;3.80;;
14116;SDS011;7137;51.436;6.544;2023-05-28T14:35:49;6.87;;;3.33;;
14116;SDS011;7137;51.436;6.544;2023-05-28T14:38:50;6.03;;;3.40;;
14116;SDS011;7137;51.436;6.544;2023-05-28T14:41:52;9.30;;;3.87;;
14116;SDS011;7137;51.436;6.544;2023-05-28T14:44:53;8.73;;;3.70;;
14116;SDS011;7137;51.436;6.544;2023-05-28T14:47:55;7.27;;;3.30;;
14116;SDS011;7137;51.436;6.544;2023-05-28T14:50:58;6.70;;;3.13;;
14116;SDS011;7137;51.436;6.544;2023-05-28T14:54:01;7.77;;;3.30;;
14116;SDS011;7137;51.436;6.544;2023-05-28T14:57:03;6.57;;;3.20;;
14116;SDS011;7137;51.436;6.544;2023-05-28T15:00:06;8.07;;;3.53;;
14116;SDS011;7137;51.436;6.544;2023-05-28T15:03:09;7.37;;;3.20;;
14116;SDS011;7137;51.436;6.544;2023-05-28T15:06:12;6.40;;;2.90;;
14116;SDS011;7137;51.436;6.544;2023-05-28T15:09:13;7.37;;;3.40;;
14116;SDS011;7137;51.436;6.544;2023-05-28T15:12:15;7.30;;;3.27;;
14116;SDS011;7137;51.436;6.544;2023-05-28T15:15:17;7.43;;;3.17;;
14116;SDS011;7137;51.436;6.544;2023-05-28T15:18:20;5.30;;;2.83;;
14116;SDS011;7137;51.436;6.544;2023-05-28T15:21:23;5.80;;;3.07;;
14116;SDS011;7137;51.436;6.544;2023-05-28T15:28:22;6.40;;;3.20;;
14116;SDS011;7137;51.436;6.544;2023-05-28T15:31:24;6.43;;;2.90;;
14116;SDS011;7137;51.436;6.544;2023-05-28T15:34:27;6.73;;;3.60;;
14116;SDS011;7137;51.436;6.544;2023-05-28T15:37:31;6.47;;;3.30;;
14116;SDS011;7137;51.436;6.544;2023-05-28T15:40:33;5.70;;;3.00;;
14116;SDS011;7137;51.436;6.544;2023-05-28T15:43:35;6.70;;;3.20;;
14116;SDS011;7137;51.436;6.544;2023-05-28T15:46:37;6.97;;;3.10;;
14116;SDS011;7137;51.436;6.544;2023-05-28T15:49:39;6.70;;;3.17;;
14116;SDS011;7137;51.436;6.544;2023-05-28T15:52:41;8.50;;;3.63;;
14116;SDS011;7137;51.436;6.544;2023-05-28T15:55:43;6.10;;;3.80;;
14116;SDS011;7137;51.436;6.544;2023-05-28T15:58:45;6.20;;;3.10;;
14116;SDS011;7137;51.436;6.544;2023-05-28T16:01:48;5.70;;;3.10;;
14116;SDS011;7137;51.436;6.544;2023-05-28T16:04:51;6.47;;;3.10;;
14116;SDS011;7137;51.436;6.544;2023-05-28T16:07:54;6.50;;;3.07;;
14116;SDS011;7137;51.436;6.544;2023-05-28T16:10:56;8.30;;;4.70;;
14116;SDS011;7137;51.436;6.544;2023-05-28T16:13:58;7.17;;;3.03;;
14116;SDS011;7137;51.436;6.544;2023-05-28T16:17:01;6.70;;;3.37;;
14116;SDS011;7137;51.436;6.544;2023-05-28T16:20:06;6.57;;;3.10;;
14116;SDS011;7137;51.436;6.544;2023-05-28T16:23:11;5.63;;;2.90;;
14116;SDS011;7137;51.436;6.544;2023-05-28T16:26:13;6.30;;;3.00;;
14116;SDS011;7137;51.436;6.544;2023-05-28T16:29:15;5.63;;;3.07;;
14116;SDS011;7137;51.436;6.544;2023-05-28T16:32:18;6.47;;;3.10;;
14116;SDS011;7137;51.436;6.544;2023-05-28T16:35:20;6.70;;;3.40;;
14116;SDS011;7137;51.436;6.544;2023-05-28T16:38:23;6.63;;;3.13;;
14116;SDS011;7137;51.436;6.544;2023-05-28T16:41:26;7.57;;;3.53;;
14116;SDS011;7137;51.436;6.544;2023-05-28T16:44:28;6.80;;;3.40;;
14116;SDS011;7137;51.436;6.544;2023-05-28T16:47:31;7.87;;;3.43;;
14116;SDS011;7137;51.436;6.544;2023-05-28T16:50:34;7.50;;;3.70;;
14116;SDS011;7137;51.436;6.544;2023-05-28T16:53:37;7.10;;;3.77;;
14116;SDS011;7137;51.436;6.544;2023-05-28T16:56:40;7.67;;;3.60;;
14116;SDS011;7137;51.436;6.544;2023-05-28T16:59:42;5.73;;;3.20;;
14116;SDS011;7137;51.436;6.544;2023-05-28T17:02:45;8.07;;;3.63;;
14116;SDS011;7137;51.436;6.544;2023-05-28T17:05:49;6.37;;;3.83;;
14116;SDS011;7137;51.436;6.544;2023-05-28T17:08:52;7.47;;;3.93;;
14116;SDS011;7137;51.436;6.544;2023-05-28T17:11:54;7.23;;;3.67;;
14116;SDS011;7137;51.436;6.544;2023-05-28T17:14:56;6.83;;;3.40;;
14116;SDS011;7137;51.436;6.544;2023-05-28T17:17:57;8.30;;;5.47;;
14116;SDS011;7137;51.436;6.544;2023-05-28T17:20:59;7.47;;;3.77;;
14116;SDS011;7137;51.436;6.544;2023-05-28T17:24:02;7.43;;;3.77;;
14116;SDS011;7137;51.436;6.544;2023-05-28T17:27:05;10.00;;;4.70;;
14116;SDS011;7137;51.436;6.544;2023-05-28T17:30:07;6.27;;;3.70;;
14116;SDS011;7137;51.436;6.544;2023-05-28T17:33:09;8.77;;;3.30;;
14116;SDS011;7137;51.436;6.544;2023-05-28T17:36:10;10.93;;;6.90;;
14116;SDS011;7137;51.436;6.544;2023-05-28T17:39:13;13.07;;;8.70;;
14116;SDS011;7137;51.436;6.544;2023-05-28T17:42:15;9.80;;;6.67;;
14116;SDS011;7137;51.436;6.544;2023-05-28T17:45:17;9.23;;;3.70;;
14116;SDS011;7137;51.436;6.544;2023-05-28T17:48:19;6.77;;;3.73;;
14116;SDS011;7137;51.436;6.544;2023-05-28T17:51:21;10.10;;;4.80;;
14116;SDS011;7137;51.436;6.544;2023-05-28T17:54:24;7.93;;;3.47;;
14116;SDS011;7137;51.436;6.544;2023-05-28T17:57:25;6.37;;;3.03;;
14116;SDS011;7137;51.436;6.544;2023-05-28T18:00:27;6.60;;;3.50;;
14116;SDS011;7137;51.436;6.544;2023-05-28T18:03:30;6.53;;;3.63;;
14116;SDS011;7137;51.436;6.544;2023-05-28T18:06:32;7.73;;;3.43;;
14116;SDS011;7137;51.436;6.544;2023-05-28T18:09:36;7.00;;;3.33;;
14116;SDS011;7137;51.436;6.544;2023-05-28T18:12:37;8.07;;;3.50;;
14116;SDS011;7137;51.436;6.544;2023-05-28T18:15:39;6.53;;;3.37;;
14116;SDS011;7137;51.436;6.544;2023-05-28T18:18:40;6.97;;;3.13;;
14116;SDS011;7137;51.436;6.544;2023-05-28T18:21:42;7.17;;;3.33;;
14116;SDS011;7137;51.436;6.544;2023-05-28T18:24:45;5.93;;;3.00;;
14116;SDS011;7137;51.436;6.544;2023-05-28T18:27:46;7.97;;;3.90;;
14116;SDS011;7137;51.436;6.544;2023-05-28T18:30:48;7.07;;;3.30;;
14116;SDS011;7137;51.436;6.544;2023-05-28T18:33:50;6.27;;;3.40;;
14116;SDS011;7137;51.436;6.544;2023-05-28T18:36:52;7.73;;;3.03;;